Time;durP1;ratioP1;P1;durP2;ratioP2;P2;SDS_P1;SDS_P2;PMS_P1;PMS_P2;Temp;Humidity;BMP_temperature;BMP_pressure;BME280_temperature;BME280_humidity;BME280_pressure;Samples;Min_cycle;Max_cycle;Signal;HPM_P1;HPM_P2
2022/04/29 00:00:42;;;;;;;4.28;3.30;;;21.30;99.90;;;;;;5088095;28;20020;-72
2022/04/29 00:03:11;;;;;;;4.22;3.80;;;21.80;99.90;;;;;;5082771;28;20104;-74
2022/04/29 00:05:40;;;;;;;4.18;3.50;;;22.10;99.90;;;;;;5077856;28;20048;-74
2022/04/29 00:08:09;;;;;;;2.95;2.10;;;22.10;99.90;;;;;;5087042;28;20114;-75
2022/04/29 00:10:38;;;;;;;4.50;3.15;;;22.20;99.90;;;;;;5088188;28;20028;-75
2022/04/29 00:13:07;;;;;;;4.97;3.60;;;22.50;99.90;;;;;;5088534;28;20482;-74
2022/04/29 00:15:35;;;;;;;5.53;3.15;;;22.80;99.90;;;;;;5086025;28;20028;-74
2022/04/29 00:18:02;;;;;;;2.75;2.30;;;22.70;99.90;;;;;;5082720;28;20032;-75
2022/04/29 00:20:29;;;;;;;5.82;3.55;;;22.70;99.90;;;;;;5090371;28;20141;-74
2022/04/29 00:22:57;;;;;;;2.50;1.85;;;22.60;99.90;;;;;;5088830;28;20067;-73
2022/04/29 00:25:24;;;;;;;1.60;1.17;;;22.50;99.90;;;;;;5091621;28;20031;-73
2022/04/29 00:27:52;;;;;;;2.13;1.70;;;22.50;99.90;;;;;;5088469;28;20024;-73
2022/04/29 00:30:19;;;;;;;1.85;1.63;;;22.50;99.90;;;;;;5087562;28;20029;-73
2022/04/29 00:32:47;;;;;;;3.05;1.98;;;22.50;99.90;;;;;;5091502;28;20036;-74
2022/04/29 00:35:15;;;;;;;2.25;1.23;;;22.40;99.90;;;;;;5082407;28;20496;-74
2022/04/29 00:37:50;;;;;;;2.55;1.67;;;22.20;99.90;;;;;;5102792;28;20075;-74
2022/04/29 00:40:26;;;;;;;2.65;2.00;;;22.20;99.90;;;;;;5108014;28;20746;-75
2022/04/29 00:42:53;;;;;;;1.98;1.63;;;22.10;99.90;;;;;;5089386;28;20082;-75
2022/04/29 00:45:23;;;;;;;3.25;1.83;;;21.90;99.90;;;;;;5092604;28;20035;-73
2022/04/29 00:47:51;;;;;;;2.57;1.13;;;21.80;99.90;;;;;;4992966;28;2819900;-72
2022/04/29 00:50:22;;;;;;;2.35;1.80;;;21.80;99.90;;;;;;5087840;28;20806;-73
2022/04/29 00:52:51;;;;;;;2.13;1.77;;;21.90;99.90;;;;;;5081439;28;20024;-73
2022/04/29 00:55:20;;;;;;;1.75;1.42;;;22.10;99.90;;;;;;5076982;28;20036;-73
2022/04/29 00:57:50;;;;;;;2.33;1.70;;;22.40;99.90;;;;;;5081420;28;20025;-73
2022/04/29 01:00:18;;;;;;;3.53;1.90;;;22.70;99.90;;;;;;5073261;28;20141;-74
2022/04/29 01:02:56;;;;;;;5.90;1.75;;;22.90;99.90;;;;;;5073150;28;20482;-75
2022/04/29 01:05:25;;;;;;;1.92;1.63;;;23.10;99.90;;;;;;5071078;28;20058;-73
2022/04/29 01:07:53;;;;;;;5.70;1.48;;;23.20;99.90;;;;;;5071427;28;20028;-73
2022/04/29 01:10:22;;;;;;;1.67;1.30;;;23.70;99.90;;;;;;5080654;28;20107;-74
2022/04/29 01:13:04;;;;;;;2.55;1.30;;;23.90;99.90;;;;;;5087851;28;20440;-73
2022/04/29 01:15:32;;;;;;;3.25;1.30;;;23.80;99.90;;;;;;5090585;28;20336;-73
2022/04/29 01:18:09;;;;;;;2.20;1.50;;;23.70;99.90;;;;;;5084824;28;20044;-74
2022/04/29 01:20:38;;;;;;;2.58;1.58;;;23.60;99.90;;;;;;5088678;28;20036;-75
2022/04/29 01:23:11;;;;;;;2.20;1.40;;;23.60;99.90;;;;;;5089196;28;20032;-72
2022/04/29 01:25:39;;;;;;;1.80;1.20;;;23.50;99.90;;;;;;5091275;28;20544;-74
2022/04/29 01:28:07;;;;;;;2.17;1.15;;;23.40;99.90;;;;;;5085853;28;20052;-73
2022/04/29 01:30:36;;;;;;;2.67;1.65;;;23.40;99.90;;;;;;5077205;28;20035;-74
2022/04/29 01:33:05;;;;;;;1.90;1.40;;;23.40;99.90;;;;;;5090616;28;20028;-73
2022/04/29 01:35:32;;;;;;;1.45;1.23;;;23.30;99.90;;;;;;5088364;28;20057;-74
2022/04/29 01:37:59;;;;;;;3.10;1.30;;;23.20;99.90;;;;;;5087048;28;20036;-75
2022/04/29 01:40:27;;;;;;;3.38;1.52;;;23.20;99.90;;;;;;5078208;28;20065;-75
2022/04/29 01:42:54;;;;;;;4.80;1.48;;;23.20;99.90;;;;;;5084561;28;20031;-75
2022/04/29 01:45:22;;;;;;;2.47;1.83;;;23.40;99.90;;;;;;5086418;28;20463;-76
2022/04/29 01:47:49;;;;;;;2.88;1.40;;;23.50;99.90;;;;;;5090141;28;20106;-75
2022/04/29 01:50:16;;;;;;;3.17;1.50;;;23.50;99.90;;;;;;5084866;28;20031;-74
2022/04/29 01:52:44;;;;;;;2.88;2.28;;;23.60;99.90;;;;;;5080094;28;20457;-73
2022/04/29 01:55:11;;;;;;;2.63;1.67;;;23.60;99.90;;;;;;5083007;28;20023;-74
2022/04/29 01:57:38;;;;;;;5.13;2.35;;;23.60;99.90;;;;;;5096610;28;20038;-75
2022/04/29 02:00:07;;;;;;;5.45;2.65;;;23.80;99.90;;;;;;5087399;28;20036;-75
2022/04/29 02:02:34;;;;;;;7.82;3.42;;;23.90;99.90;;;;;;5084439;28;20042;-74
2022/04/29 02:05:01;;;;;;;2.83;2.58;;;24.00;99.90;;;;;;5083685;28;20028;-74
2022/04/29 02:07:29;;;;;;;4.13;3.67;;;24.10;99.90;;;;;;5070358;28;20761;-73
2022/04/29 02:09:56;;;;;;;6.20;3.60;;;24.10;99.90;;;;;;5069239;28;20032;-74
2022/04/29 02:12:23;;;;;;;5.57;3.22;;;24.30;99.90;;;;;;5073243;28;20544;-74
2022/04/29 02:14:51;;;;;;;3.22;2.83;;;25.20;99.90;;;;;;5071341;28;20565;-74
2022/04/29 02:17:18;;;;;;;5.43;3.55;;;25.40;99.90;;;;;;5069604;28;20025;-73
2022/04/29 02:19:46;;;;;;;3.53;3.13;;;25.40;99.90;;;;;;5078189;28;20036;-75
2022/04/29 02:22:13;;;;;;;4.50;3.05;;;25.40;99.90;;;;;;5087055;28;20035;-74
2022/04/29 02:24:42;;;;;;;5.50;3.47;;;25.20;99.90;;;;;;5076742;28;20040;-74
2022/04/29 02:27:09;;;;;;;5.30;3.08;;;25.10;99.90;;;;;;5062227;28;20130;-74
2022/04/29 02:29:37;;;;;;;7.10;3.85;;;25.30;99.90;;;;;;5083048;28;20105;-77
2022/04/29 02:32:05;;;;;;;5.82;3.55;;;25.60;99.90;;;;;;5089011;28;20046;-73
2022/04/29 02:34:32;;;;;;;4.38;3.05;;;26.00;99.90;;;;;;5087266;28;20028;-78
2022/04/29 02:36:59;;;;;;;6.82;3.03;;;26.60;99.90;;;;;;5085959;28;20063;-75
2022/04/29 02:39:27;;;;;;;6.05;3.33;;;27.10;99.90;;;;;;5090366;28;20107;-78
2022/04/29 02:41:54;;;;;;;6.78;2.35;;;27.90;99.90;;;;;;5085723;28;20028;-75
2022/04/29 02:44:22;;;;;;;6.32;3.13;;;28.20;99.90;;;;;;5073737;28;20036;-76
2022/04/29 02:47:07;;;;;;;4.07;3.22;;;28.70;99.90;;;;;;5088095;28;20040;-73
2022/04/29 02:49:43;;;;;;;3.25;2.30;;;29.00;99.90;;;;;;5090320;28;20028;-74
2022/04/29 02:52:10;;;;;;;;;;;29.10;99.90;;;;;;5081306;28;20028;-73
2022/04/29 02:54:39;;;;;;;3.63;1.90;;;29.40;99.90;;;;;;5082235;28;19999;-75
2022/04/29 02:57:06;;;;;;;3.67;1.80;;;29.70;99.90;;;;;;5080426;28;20035;-76
2022/04/29 02:59:34;;;;;;;2.70;1.85;;;29.70;99.90;;;;;;5090183;28;20028;-74
2022/04/29 03:02:01;;;;;;;4.18;2.20;;;29.70;99.90;;;;;;5088632;28;20401;-75
2022/04/29 03:04:28;;;;;;;2.42;1.40;;;29.60;99.90;;;;;;5083622;28;20036;-73
2022/04/29 03:06:56;;;;;;;2.30;1.75;;;29.60;99.90;;;;;;5087575;28;20429;-73
2022/04/29 03:09:25;;;;;;;3.88;1.98;;;29.30;99.90;;;;;;5070320;28;20487;-74
2022/04/29 03:11:52;;;;;;;3.20;1.95;;;29.40;99.90;;;;;;5075655;28;20042;-73
2022/04/29 03:14:20;;;;;;;2.60;1.23;;;29.30;99.90;;;;;;5085010;28;20489;-75
2022/04/29 03:16:47;;;;;;;1.80;1.15;;;29.30;99.90;;;;;;5072913;28;20024;-74
2022/04/29 03:19:14;;;;;;;1.35;0.90;;;29.30;99.90;;;;;;5069204;28;20044;-74
2022/04/29 03:21:42;;;;;;;2.92;1.40;;;29.40;99.90;;;;;;5071436;28;20474;-74
2022/04/29 03:24:09;;;;;;;1.98;1.10;;;29.50;99.90;;;;;;5072987;28;20036;-73
2022/04/29 03:26:37;;;;;;;1.40;1.30;;;29.70;99.90;;;;;;5073106;28;20107;-75
2022/04/29 03:29:05;;;;;;;2.63;0.70;;;29.50;99.90;;;;;;5072454;28;20028;-73
2022/04/29 03:31:32;;;;;;;0.75;0.60;;;29.40;99.90;;;;;;5070772;28;20036;-75
2022/04/29 03:33:59;;;;;;;1.92;0.95;;;29.30;99.90;;;;;;5078741;28;20024;-74
2022/04/29 03:36:27;;;;;;;2.30;1.02;;;28.90;99.90;;;;;;5068938;28;20032;-72
2022/04/29 03:38:54;;;;;;;1.35;0.90;;;28.60;99.90;;;;;;5073907;28;20040;-74
2022/04/29 03:41:21;;;;;;;2.90;0.90;;;28.40;99.90;;;;;;5071357;28;20201;-73
2022/04/29 03:43:49;;;;;;;1.88;0.98;;;28.10;99.90;;;;;;5077531;28;20032;-73
2022/04/29 03:46:19;;;;;;;2.45;0.95;;;27.90;99.90;;;;;;5080562;28;20024;-76
2022/04/29 03:51:31;;;;;;;6.00;1.90;;;27.90;99.90;;;;;;5075144;28;20054;-73
2022/04/29 03:53:59;;;;;;;2.20;1.33;;;27.80;99.90;;;;;;5074740;28;20043;-73
2022/04/29 03:56:26;;;;;;;1.80;1.40;;;27.90;99.90;;;;;;5076683;28;20075;-73
2022/04/29 03:58:53;;;;;;;2.58;1.27;;;27.80;99.90;;;;;;5071725;28;20565;-73
2022/04/29 04:01:21;;;;;;;1.38;1.15;;;28.00;99.90;;;;;;5071332;28;20052;-74
2022/04/29 04:03:48;;;;;;;2.60;1.20;;;28.00;99.90;;;;;;5074519;28;20040;-76
2022/04/29 04:09:00;;;;;;;1.27;1.00;;;28.20;99.90;;;;;;5088817;28;20075;-73
2022/04/29 04:11:28;;;;;;;2.35;1.27;;;28.20;99.90;;;;;;5074542;28;20340;-74
2022/04/29 04:13:55;;;;;;;1.95;0.90;;;28.30;99.90;;;;;;5073174;28;20093;-76
2022/04/29 04:16:24;;;;;;;1.30;1.00;;;28.40;99.90;;;;;;5072729;28;20398;-75
2022/04/29 04:18:52;;;;;;;1.83;1.00;;;28.30;99.90;;;;;;5073992;28;20074;-74
2022/04/29 04:21:19;;;;;;;1.73;1.20;;;28.30;99.90;;;;;;5072175;28;20131;-73
2022/04/29 04:23:46;;;;;;;2.38;1.77;;;28.20;99.90;;;;;;5072023;28;20058;-74
2022/04/29 04:26:13;;;;;;;2.78;1.50;;;28.00;99.90;;;;;;5075518;28;20016;-74
2022/04/29 04:28:41;;;;;;;1.85;1.52;;;27.80;99.90;;;;;;5081030;28;20107;-74
2022/04/29 04:31:08;;;;;;;2.65;1.85;;;27.60;99.90;;;;;;5089018;28;20019;-72
2022/04/29 04:33:36;;;;;;;3.95;2.47;;;27.40;99.90;;;;;;5072446;28;20435;-75
2022/04/29 04:36:04;;;;;;;3.22;1.67;;;27.30;99.90;;;;;;5079181;28;20106;-73
2022/04/29 04:38:32;;;;;;;3.33;1.02;;;27.20;99.90;;;;;;5070102;28;20474;-75
2022/04/29 04:41:00;;;;;;;1.45;1.10;;;27.20;99.90;;;;;;5074826;28;20020;-73
2022/04/29 04:43:30;;;;;;;1.70;1.17;;;27.10;99.90;;;;;;5075882;28;20032;-73
2022/04/29 04:45:57;;;;;;;1.77;1.20;;;27.20;99.90;;;;;;5073194;28;20116;-73
2022/04/29 04:48:24;;;;;;;2.97;1.20;;;27.30;99.90;;;;;;5074919;28;20039;-73
2022/04/29 04:50:52;;;;;;;3.53;1.27;;;27.40;99.90;;;;;;5072709;28;20422;-75
2022/04/29 04:53:20;;;;;;;1.23;0.88;;;27.30;99.90;;;;;;5077139;28;20040;-72
2022/04/29 04:55:48;;;;;;;1.23;1.13;;;27.30;99.90;;;;;;5072993;28;20445;-75
2022/04/29 04:58:15;;;;;;;4.72;1.10;;;27.10;99.90;;;;;;5070631;28;20047;-74
2022/04/29 05:00:43;;;;;;;2.65;1.20;;;27.10;99.90;;;;;;5073572;28;20031;-74
2022/04/29 05:03:11;;;;;;;2.20;1.20;;;27.00;99.90;;;;;;5073145;28;20090;-75
2022/04/29 05:05:39;;;;;;;1.40;1.30;;;26.90;99.90;;;;;;5071824;28;20055;-76
2022/04/29 05:08:07;;;;;;;3.90;1.55;;;26.80;99.90;;;;;;5073130;28;20032;-74
2022/04/29 05:10:34;;;;;;;1.88;1.63;;;26.80;99.90;;;;;;5074244;28;20151;-75
2022/04/29 05:13:02;;;;;;;2.13;1.70;;;26.70;99.90;;;;;;5078742;28;20076;-73
2022/04/29 05:15:29;;;;;;;5.60;1.63;;;26.70;99.90;;;;;;5074174;28;20033;-74
2022/04/29 05:17:56;;;;;;;5.15;2.13;;;26.70;99.90;;;;;;5075133;28;20032;-73
2022/04/29 05:20:24;;;;;;;5.22;2.00;;;26.70;99.90;;;;;;5071959;28;20113;-73
2022/04/29 05:22:51;;;;;;;2.40;1.88;;;26.70;99.90;;;;;;5074243;28;20025;-72
2022/04/29 05:25:18;;;;;;;2.97;1.40;;;26.70;99.90;;;;;;5071052;28;20494;-74
2022/04/29 05:27:46;;;;;;;1.83;1.50;;;26.70;99.90;;;;;;5071635;28;20398;-73
2022/04/29 05:30:13;;;;;;;2.15;1.30;;;26.70;99.90;;;;;;5071996;28;20056;-73
2022/04/29 05:32:40;;;;;;;1.25;1.10;;;26.70;99.90;;;;;;5073204;28;20088;-75
2022/04/29 05:35:11;;;;;;;1.20;0.90;;;26.60;99.90;;;;;;5070292;28;20673;-74
2022/04/29 05:37:40;;;;;;;1.40;0.82;;;26.70;99.90;;;;;;5075108;28;20044;-72
2022/04/29 05:42:54;;;;;;;1.38;0.82;;;26.90;99.90;;;;;;5074347;28;20115;-74
2022/04/29 05:45:21;;;;;;;1.25;0.75;;;27.00;99.90;;;;;;5087114;28;20469;-73
2022/04/29 05:47:49;;;;;;;2.00;0.60;;;27.00;99.90;;;;;;5085817;28;20054;-74
2022/04/29 05:50:16;;;;;;;1.45;0.50;;;27.10;99.90;;;;;;5066691;28;20444;-74
2022/04/29 05:52:44;;;;;;;0.95;0.50;;;27.10;99.90;;;;;;5072866;28;20481;-74
2022/04/29 05:55:12;;;;;;;1.63;0.77;;;27.10;99.90;;;;;;5072647;28;20532;-74
2022/04/29 05:57:40;;;;;;;0.65;0.45;;;27.20;99.90;;;;;;5076334;28;20040;-74
2022/04/29 06:00:08;;;;;;;2.22;0.80;;;27.20;99.90;;;;;;5076397;28;20039;-74
2022/04/29 06:02:38;;;;;;;4.00;0.90;;;27.10;99.90;;;;;;5076145;28;20107;-73
2022/04/29 06:05:05;;;;;;;1.17;0.60;;;27.20;99.90;;;;;;5071932;28;20032;-74
2022/04/29 06:07:33;;;;;;;2.25;1.08;;;27.10;99.90;;;;;;5072741;28;20075;-74
2022/04/29 06:10:00;;;;;;;1.23;0.60;;;27.20;99.90;;;;;;5072339;28;20410;-74
2022/04/29 06:12:27;;;;;;;2.33;0.70;;;27.30;99.90;;;;;;5067208;28;20028;-77
2022/04/29 06:14:55;;;;;;;1.45;0.60;;;27.30;99.90;;;;;;5072076;28;20024;-73
2022/04/29 06:17:23;;;;;;;2.38;0.50;;;27.30;99.90;;;;;;5070444;28;20090;-74
2022/04/29 06:19:50;;;;;;;2.97;0.95;;;27.20;99.90;;;;;;5069226;28;20035;-74
2022/04/29 06:22:17;;;;;;;2.25;0.50;;;27.20;99.90;;;;;;5072147;28;20024;-74
2022/04/29 06:24:45;;;;;;;1.35;0.50;;;27.10;99.90;;;;;;5070472;28;20036;-75
2022/04/29 06:27:12;;;;;;;1.00;0.60;;;27.00;99.90;;;;;;5070296;28;20029;-74
2022/04/29 06:29:40;;;;;;;1.77;0.73;;;26.90;99.90;;;;;;5074378;28;20072;-74
2022/04/29 06:32:07;;;;;;;3.08;0.70;;;26.70;99.90;;;;;;5071285;28;20107;-74
2022/04/29 06:34:35;;;;;;;0.60;0.60;;;26.60;99.90;;;;;;5076267;28;20036;-75
2022/04/29 06:37:03;;;;;;;0.68;0.65;;;26.60;99.90;;;;;;5076581;28;20598;-74
2022/04/29 06:39:31;;;;;;;1.67;0.63;;;26.50;99.90;;;;;;5071786;28;20386;-74
2022/04/29 06:41:58;;;;;;;1.30;0.77;;;26.40;99.90;;;;;;5075828;28;20057;-76
2022/04/29 06:44:25;;;;;;;1.92;1.00;;;26.30;99.90;;;;;;5073365;28;20424;-73
2022/04/29 06:46:53;;;;;;;0.47;0.47;;;26.30;99.90;;;;;;5069182;28;20024;-74
2022/04/29 06:49:20;;;;;;;2.25;0.70;;;26.30;99.90;;;;;;5068347;28;20039;-74
2022/04/29 06:51:47;;;;;;;3.30;1.60;;;26.20;99.90;;;;;;5070964;28;20032;-74
2022/04/29 06:54:14;;;;;;;3.38;0.90;;;26.10;99.90;;;;;;5074450;28;20028;-74
2022/04/29 06:56:42;;;;;;;1.10;0.60;;;26.00;99.90;;;;;;5074269;28;20425;-74
2022/04/29 06:59:09;;;;;;;2.17;0.68;;;25.80;99.90;;;;;;5078801;28;20040;-74
2022/04/29 07:01:37;;;;;;;2.70;0.60;;;25.70;99.90;;;;;;5081831;28;20027;-73
2022/04/29 07:04:05;;;;;;;4.82;0.98;;;25.60;99.90;;;;;;5081176;28;22055;-74
2022/04/29 07:06:32;;;;;;;3.65;0.98;;;25.40;99.90;;;;;;5081863;28;20028;-74
2022/04/29 07:09:02;;;;;;;4.13;0.82;;;25.20;99.90;;;;;;5084845;28;20032;-74
2022/04/29 07:11:31;;;;;;;0.75;0.57;;;25.10;99.90;;;;;;5079204;28;20470;-74
2022/04/29 07:13:59;;;;;;;3.17;1.10;;;24.90;99.90;;;;;;5085488;28;20678;-74
2022/04/29 07:16:26;;;;;;;2.38;1.73;;;24.90;99.90;;;;;;5088685;28;20032;-76
2022/04/29 07:18:53;;;;;;;2.67;1.08;;;24.80;99.90;;;;;;5092684;28;20043;-74
2022/04/29 07:21:21;;;;;;;2.58;1.67;;;24.80;99.90;;;;;;5090537;28;20043;-75
2022/04/29 07:23:48;;;;;;;2.90;1.77;;;24.80;99.90;;;;;;5094102;28;20028;-75
2022/04/29 07:26:15;;;;;;;1.75;0.98;;;24.70;99.90;;;;;;5093013;28;20497;-73
2022/04/29 07:28:43;;;;;;;2.50;1.15;;;24.70;99.90;;;;;;5094012;28;20028;-76
2022/04/29 07:31:10;;;;;;;2.97;0.88;;;24.60;99.90;;;;;;5089490;28;20024;-75
2022/04/29 07:33:38;;;;;;;1.55;1.10;;;24.60;99.90;;;;;;5085166;28;20036;-74
2022/04/29 07:41:45;;;;;;;2.20;0.95;;;24.20;99.90;;;;;;5072767;28;20117;-74
2022/04/29 07:44:13;;;;;;;1.95;0.90;;;24.20;99.90;;;;;;5075936;28;20035;-75
2022/04/29 07:46:43;;;;;;;1.77;1.05;;;24.10;99.90;;;;;;5073796;28;20421;-74
2022/04/29 07:49:10;;;;;;;1.92;0.80;;;24.00;99.90;;;;;;5075316;28;20050;-73
2022/04/29 07:51:38;;;;;;;2.42;1.20;;;23.90;99.90;;;;;;5074177;28;20024;-74
2022/04/29 07:54:07;;;;;;;2.75;1.05;;;23.90;99.90;;;;;;5088745;28;20068;-74
2022/04/29 07:56:35;;;;;;;2.28;0.80;;;23.90;99.90;;;;;;5096483;28;20028;-74
2022/04/29 07:59:02;;;;;;;3.55;1.10;;;23.90;99.90;;;;;;5096167;28;20123;-74
2022/04/29 08:01:30;;;;;;;0.85;0.70;;;23.80;99.90;;;;;;5076446;28;20151;-74
2022/04/29 08:03:58;;;;;;;1.20;0.90;;;23.80;99.90;;;;;;5076628;28;20494;-73
2022/04/29 08:06:26;;;;;;;2.63;0.80;;;23.70;99.90;;;;;;5073318;28;20029;-74
2022/04/29 08:08:54;;;;;;;1.77;0.90;;;23.70;99.90;;;;;;5076603;28;20112;-73
2022/04/29 08:11:21;;;;;;;2.63;1.02;;;23.60;99.90;;;;;;5072348;28;20063;-74
2022/04/29 08:13:48;;;;;;;1.70;1.00;;;23.50;99.90;;;;;;5074575;28;20121;-73
2022/04/29 08:16:16;;;;;;;2.28;1.13;;;23.40;99.90;;;;;;5076686;28;20016;-73
2022/04/29 08:18:43;;;;;;;3.50;1.23;;;23.30;99.90;;;;;;5077951;28;20060;-74
2022/04/29 08:21:11;;;;;;;1.23;0.90;;;23.30;99.90;;;;;;5088181;28;20028;-73
2022/04/29 08:23:38;;;;;;;3.05;1.15;;;23.20;99.90;;;;;;5097726;28;20490;-74
2022/04/29 08:26:05;;;;;;;2.13;1.55;;;23.20;99.90;;;;;;5091708;28;20073;-73
2022/04/29 08:28:33;;;;;;;3.55;1.40;;;23.10;99.90;;;;;;5091724;28;20032;-74
2022/04/29 08:31:00;;;;;;;3.42;1.13;;;23.10;99.90;;;;;;5085287;28;20461;-74
2022/04/29 08:33:28;;;;;;;1.98;1.33;;;23.00;99.90;;;;;;5084547;28;20074;-74
2022/04/29 08:35:55;;;;;;;4.53;1.15;;;22.90;99.90;;;;;;5074087;28;20024;-74
2022/04/29 08:38:22;;;;;;;1.00;0.90;;;22.80;99.90;;;;;;5074618;28;20877;-75
2022/04/29 08:40:50;;;;;;;2.30;1.05;;;22.70;99.90;;;;;;5084779;28;20056;-74
2022/04/29 08:43:19;;;;;;;2.00;1.13;;;22.60;99.90;;;;;;5089088;28;20027;-74
2022/04/29 08:45:47;;;;;;;1.10;0.82;;;22.60;99.90;;;;;;5089717;28;20085;-74
2022/04/29 08:48:15;;;;;;;2.50;1.23;;;22.50;99.90;;;;;;5094722;28;20056;-74
2022/04/29 08:50:42;;;;;;;3.30;1.67;;;22.40;99.90;;;;;;5092614;28;20028;-74
2022/04/29 08:53:11;;;;;;;1.73;1.20;;;22.40;99.90;;;;;;5091445;28;20023;-74
2022/04/29 08:58:43;;;;;;;2.07;1.20;;;22.30;99.90;;;;;;5081995;28;20063;-72
2022/04/29 09:01:16;;;;;;;1.75;1.25;;;22.20;99.90;;;;;;5090894;28;20281;-75
2022/04/29 09:03:44;;;;;;;2.08;1.65;;;22.20;99.90;;;;;;5076673;28;20038;-72
2022/04/29 09:06:12;;;;;;;1.95;1.50;;;22.10;99.90;;;;;;5074653;28;20020;-75
2022/04/29 09:08:41;;;;;;;3.88;2.10;;;22.30;99.90;;;;;;5092336;28;20024;-75
2022/04/29 09:11:10;;;;;;;4.57;1.58;;;22.40;99.90;;;;;;5089281;28;20031;-75
2022/04/29 09:13:39;;;;;;;2.50;1.77;;;22.40;99.90;;;;;;5082819;28;20035;-74
2022/04/29 09:16:10;;;;;;;1.90;1.30;;;22.40;99.90;;;;;;5074019;28;20020;-73
2022/04/29 09:18:53;;;;;;;1.98;1.65;;;22.40;99.90;;;;;;5087420;28;20044;-74
2022/04/29 09:21:31;;;;;;;1.35;1.05;;;22.40;99.90;;;;;;5091476;28;20036;-74
2022/04/29 09:24:03;;;;;;;5.00;1.48;;;22.40;99.90;;;;;;5091171;28;20028;-74
2022/04/29 09:26:35;;;;;;;2.25;1.38;;;22.30;99.90;;;;;;5081961;28;20044;-73
2022/04/29 09:29:14;;;;;;;3.50;1.58;;;22.30;99.90;;;;;;5084126;28;20073;-73
2022/04/29 09:31:58;;;;;;;2.55;1.30;;;22.20;99.90;;;;;;5081700;28;20028;-73
2022/04/29 09:34:44;;;;;;;4.25;1.73;;;22.10;99.90;;;;;;5091173;28;20028;-74
2022/04/29 09:37:20;;;;;;;4.32;1.75;;;22.10;99.90;;;;;;5090762;28;20024;-73
2022/04/29 09:39:50;;;;;;;;;;;22.10;99.90;;;;;;5088154;28;20455;-73
2022/04/29 09:42:18;;;;;;;3.55;1.60;;;22.10;99.90;;;;;;5102484;28;19908;-73
2022/04/29 09:44:45;;;;;;;3.22;1.48;;;22.20;99.90;;;;;;5087527;28;20036;-72
2022/04/29 09:47:20;;;;;;;2.55;1.50;;;22.20;99.90;;;;;;5085978;28;20051;-73
2022/04/29 09:49:55;;;;;;;4.25;1.88;;;22.20;99.90;;;;;;5088837;28;20118;-73
2022/04/29 09:52:24;;;;;;;4.70;2.22;;;22.30;99.90;;;;;;5096790;28;20028;-73
2022/04/29 09:54:52;;;;;;;3.65;1.33;;;22.30;99.90;;;;;;5090279;28;20034;-75
2022/04/29 09:57:27;;;;;;;3.03;1.70;;;22.30;99.90;;;;;;5083252;28;20394;-75
2022/04/29 09:59:55;;;;;;;1.50;1.20;;;22.30;99.90;;;;;;5090108;28;20161;-75
2022/04/29 10:02:27;;;;;;;2.97;1.33;;;22.40;99.90;;;;;;5102447;28;20023;-75
2022/04/29 10:04:56;;;;;;;3.55;1.50;;;22.30;99.90;;;;;;5071132;28;20024;-73
2022/04/29 10:07:25;;;;;;;1.40;1.10;;;22.40;99.90;;;;;;5082546;28;20035;-74
2022/04/29 10:09:54;;;;;;;2.65;1.27;;;22.40;99.90;;;;;;5086500;28;20035;-75
2022/04/29 10:12:23;;;;;;;1.85;1.15;;;22.40;99.90;;;;;;5081510;28;20059;-73
2022/04/29 10:15:05;;;;;;;1.70;1.10;;;22.40;99.90;;;;;;5081699;28;20035;-73
2022/04/29 10:23:12;;;;;;;1.58;0.85;;;22.40;99.90;;;;;;5087844;28;20039;-73
2022/04/29 10:25:46;;;;;;;1.65;1.00;;;22.40;99.90;;;;;;5070868;28;20024;-73
2022/04/29 10:28:21;;;;;;;1.33;0.88;;;22.40;99.90;;;;;;5089597;28;20025;-74
2022/04/29 10:31:05;;;;;;;2.25;0.90;;;22.40;99.90;;;;;;5087363;28;20032;-74
2022/04/29 10:33:34;;;;;;;2.45;1.17;;;22.30;99.90;;;;;;5073508;28;20035;-75
2022/04/29 10:36:09;;;;;;;0.75;0.70;;;22.20;99.90;;;;;;5084650;28;20438;-74
2022/04/29 10:38:42;;;;;;;2.93;1.10;;;22.20;99.90;;;;;;5090700;28;20040;-75
2022/04/29 10:41:12;;;;;;;1.88;1.05;;;22.20;99.90;;;;;;5085082;28;20303;-73
2022/04/29 10:43:46;;;;;;;2.17;0.82;;;22.20;99.90;;;;;;5096584;28;20364;-73
2022/04/29 10:46:20;;;;;;;2.35;1.40;;;22.20;99.90;;;;;;5089254;28;20024;-74
2022/04/29 10:48:49;;;;;;;2.55;1.15;;;22.20;99.90;;;;;;5081465;28;20136;-73
2022/04/29 10:51:28;;;;;;;2.45;1.02;;;22.10;99.90;;;;;;5079927;28;20024;-75
2022/04/29 10:53:58;;;;;;;1.25;0.80;;;22.10;99.90;;;;;;5084891;28;20028;-73
2022/04/29 10:56:31;;;;;;;2.65;1.50;;;22.00;99.90;;;;;;5093135;28;20470;-75
2022/04/29 10:59:09;;;;;;;1.75;1.08;;;22.00;99.90;;;;;;5076583;28;20051;-73
2022/04/29 11:01:38;;;;;;;1.90;1.23;;;21.90;99.90;;;;;;5080777;28;20498;-73
2022/04/29 11:04:07;;;;;;;4.40;1.20;;;21.80;99.90;;;;;;5086465;28;20482;-73
2022/04/29 11:06:46;;;;;;;1.35;0.95;;;21.80;99.90;;;;;;5099038;28;20055;-73
2022/04/29 11:09:36;;;;;;;2.00;0.98;;;21.80;99.90;;;;;;5114955;28;20031;-74
2022/04/29 11:12:04;;;;;;;2.00;1.10;;;21.90;99.90;;;;;;5101011;28;20024;-72
2022/04/29 11:14:51;;;;;;;3.28;1.77;;;21.80;99.90;;;;;;5091638;28;20056;-74
2022/04/29 11:17:18;;;;;;;1.98;0.93;;;21.80;99.90;;;;;;5085039;28;20028;-75
2022/04/29 11:19:47;;;;;;;2.95;1.00;;;21.70;99.90;;;;;;5094485;28;20080;-73
2022/04/29 11:25:07;;;;;;;4.82;1.83;;;21.60;99.90;;;;;;5090553;28;20524;-74
2022/04/29 11:27:37;;;;;;;2.92;1.35;;;21.60;99.90;;;;;;5093215;28;20054;-73
2022/04/29 11:30:05;;;;;;;1.25;1.13;;;21.60;99.90;;;;;;5094208;28;20016;-76
2022/04/29 11:32:38;;;;;;;2.85;1.00;;;21.60;99.90;;;;;;5094925;28;20073;-75
2022/04/29 11:35:05;;;;;;;3.83;1.42;;;21.50;99.90;;;;;;5077385;28;20099;-74
2022/04/29 11:37:34;;;;;;;2.50;1.20;;;21.50;99.90;;;;;;5072954;28;20033;-72
2022/04/29 11:40:11;;;;;;;2.55;1.35;;;21.40;99.90;;;;;;5076537;28;20071;-73
2022/04/29 11:42:50;;;;;;;2.47;1.25;;;21.50;99.90;;;;;;5078246;28;20032;-72
2022/04/29 11:45:22;;;;;;;1.17;0.93;;;21.40;99.90;;;;;;5074538;28;20028;-75
2022/04/29 11:47:49;;;;;;;1.85;1.10;;;21.40;99.90;;;;;;5077098;28;20579;-74
2022/04/29 11:50:29;;;;;;;4.00;1.10;;;21.40;99.90;;;;;;5077921;28;20079;-72
2022/04/29 11:53:04;;;;;;;1.80;0.93;;;21.40;99.90;;;;;;5063640;28;20525;-74
2022/04/29 11:55:32;;;;;;;0.87;0.63;;;21.40;99.90;;;;;;5074953;28;20031;-72
2022/04/29 11:58:00;;;;;;;3.72;1.08;;;21.40;99.90;;;;;;5074561;28;20036;-74
2022/04/29 12:00:30;;;;;;;2.05;1.48;;;21.40;99.90;;;;;;5070775;28;20506;-75
2022/04/29 12:02:59;;;;;;;1.42;1.20;;;21.40;99.90;;;;;;5074732;28;20554;-74
2022/04/29 12:05:29;;;;;;;1.20;0.93;;;21.40;99.90;;;;;;5073958;28;20033;-74
2022/04/29 12:08:01;;;;;;;4.22;1.38;;;21.40;99.90;;;;;;5074008;28;20028;-74
2022/04/29 12:10:31;;;;;;;3.28;1.27;;;21.40;99.90;;;;;;5080418;28;20097;-73
2022/04/29 12:13:00;;;;;;;3.65;1.45;;;21.50;99.90;;;;;;5090936;28;20046;-74
2022/04/29 12:15:35;;;;;;;3.80;3.17;;;21.50;99.90;;;;;;5085806;28;20830;-73
2022/04/29 12:18:07;;;;;;;3.65;2.42;;;21.50;99.90;;;;;;5104349;28;20505;-73
2022/04/29 12:20:34;;;;;;;1.60;1.25;;;21.60;99.90;;;;;;5094359;28;20036;-74
2022/04/29 12:23:12;;;;;;;2.17;1.60;;;21.70;99.90;;;;;;5087371;28;20032;-73
2022/04/29 12:25:45;;;;;;;1.13;0.88;;;21.70;99.90;;;;;;5085805;28;20047;-74
2022/04/29 12:28:37;;;;;;;1.15;0.80;;;21.80;99.90;;;;;;5087753;28;20103;-75
2022/04/29 12:36:49;;;;;;;1.95;0.85;;;21.80;99.90;;;;;;5091173;28;20505;-75
2022/04/29 12:39:35;;;;;;;2.88;0.80;;;21.80;99.90;;;;;;5089046;28;20032;-75
2022/04/29 12:42:09;;;;;;;1.73;0.80;;;21.80;99.90;;;;;;5077324;28;20012;-73
2022/04/29 12:47:35;;;;;;;1.67;0.90;;;21.80;99.90;;;;;;5074191;28;20063;-75
2022/04/29 12:50:37;;;;;;;3.47;0.90;;;21.80;99.90;;;;;;5072342;28;20020;-75
2022/04/29 12:53:05;;;;;;;1.75;0.70;;;21.80;99.90;;;;;;5075851;28;20050;-76
2022/04/29 12:55:47;;;;;;;0.85;0.50;;;21.80;99.90;;;;;;5072155;28;20430;-73
2022/04/29 12:58:20;;;;;;;2.50;0.98;;;21.80;99.90;;;;;;5073523;28;20024;-74
2022/04/29 13:01:08;;;;;;;1.23;0.70;;;21.70;99.90;;;;;;5075444;28;20020;-75
2022/04/29 13:03:36;;;;;;;1.42;1.05;;;21.70;99.90;;;;;;5073704;28;20020;-75
2022/04/29 13:06:03;;;;;;;1.58;0.75;;;21.70;99.90;;;;;;5070724;28;20044;-74
2022/04/29 13:08:31;;;;;;;2.60;0.80;;;21.70;99.90;;;;;;5078710;28;20032;-75
2022/04/29 13:11:03;;;;;;;1.67;1.05;;;21.70;99.90;;;;;;5070797;28;20081;-74
2022/04/29 13:13:30;;;;;;;2.35;0.98;;;21.70;99.90;;;;;;5072121;28;20032;-75
2022/04/29 13:15:58;;;;;;;2.13;0.77;;;21.70;99.90;;;;;;5074694;28;20418;-75
2022/04/29 13:18:26;;;;;;;1.40;0.90;;;21.70;99.90;;;;;;5074449;28;20044;-75
2022/04/29 13:20:53;;;;;;;1.48;1.23;;;21.70;99.90;;;;;;5073621;28;20107;-74
2022/04/29 13:23:21;;;;;;;1.73;0.70;;;21.70;99.90;;;;;;5074134;28;20032;-75
2022/04/29 13:25:52;;;;;;;1.20;1.10;;;21.70;99.90;;;;;;5069951;28;20035;-74
2022/04/29 13:28:19;;;;;;;2.03;1.50;;;21.70;99.90;;;;;;5073432;28;20040;-76
2022/04/29 13:30:46;;;;;;;3.72;2.70;;;21.70;99.90;;;;;;5075773;28;20032;-73
2022/04/29 13:33:14;;;;;;;3.15;2.05;;;21.70;99.90;;;;;;5073068;28;20532;-73